sensor_id;sensor_type;location;lat;lon;timestamp;pressure;altitude;pressure_sealevel;temperature;humidity
11830;BME280;5972;42.134;24.718;2022-10-13T00:02:19;100472.06;;;12.01;100.00
11830;BME280;5972;42.134;24.718;2022-10-13T00:04:45;100518.94;;;12.31;100.00
11830;BME280;5972;42.134;24.718;2022-10-13T00:07:15;100487.75;;;12.16;100.00
11830;BME280;5972;42.134;24.718;2022-10-13T00:09:42;100511.59;;;12.31;100.00
11830;BME280;5972;42.134;24.718;2022-10-13T00:12:09;100505.75;;;12.21;100.00
11830;BME280;5972;42.134;24.718;2022-10-13T00:14:37;100513.44;;;12.19;100.00
11830;BME280;5972;42.134;24.718;2022-10-13T00:17:04;100523.97;;;12.20;100.00
11830;BME280;5972;42.134;24.718;2022-10-13T00:19:31;100517.59;;;12.16;100.00
11830;BME280;5972;42.134;24.718;2022-10-13T00:21:58;100520.50;;;12.11;100.00
11830;BME280;5972;42.134;24.718;2022-10-13T00:24:25;100516.19;;;12.10;100.00
11830;BME280;5972;42.134;24.718;2022-10-13T00:26:58;100496.41;;;11.89;100.00
11830;BME280;5972;42.134;24.718;2022-10-13T00:29:24;100515.88;;;12.12;100.00
11830;BME280;5972;42.134;24.718;2022-10-13T00:31:52;100518.78;;;12.06;100.00
11830;BME280;5972;42.134;24.718;2022-10-13T00:34:19;100508.53;;;11.91;100.00
11830;BME280;5972;42.134;24.718;2022-10-13T00:36:46;100515.84;;;11.91;100.00
11830;BME280;5972;42.134;24.718;2022-10-13T00:39:13;100505.72;;;11.79;100.00
11830;BME280;5972;42.134;24.718;2022-10-13T00:41:43;100496.53;;;11.63;100.00
11830;BME280;5972;42.134;24.718;2022-10-13T00:47:23;100534.28;;;11.68;100.00
11830;BME280;5972;42.134;24.718;2022-10-13T00:49:52;100525.53;;;11.62;100.00
11830;BME280;5972;42.134;24.718;2022-10-13T00:52:21;100502.66;;;11.43;100.00
11830;BME280;5972;42.134;24.718;2022-10-13T00:54:49;100519.13;;;11.67;100.00
11830;BME280;5972;42.134;24.718;2022-10-13T00:57:18;100520.25;;;11.66;100.00
11830;BME280;5972;42.134;24.718;2022-10-13T00:59:46;100519.00;;;11.63;100.00
11830;BME280;5972;42.134;24.718;2022-10-13T01:02:14;100490.06;;;11.47;100.00
11830;BME280;5972;42.134;24.718;2022-10-13T01:04:44;100511.69;;;11.55;100.00
11830;BME280;5972;42.134;24.718;2022-10-13T01:07:13;100514.28;;;11.52;100.00
11830;BME280;5972;42.134;24.718;2022-10-13T01:09:42;100513.00;;;11.49;100.00
11830;BME280;5972;42.134;24.718;2022-10-13T01:12:22;100489.00;;;11.31;100.00
11830;BME280;5972;42.134;24.718;2022-10-13T01:15:00;100517.97;;;11.47;100.00
11830;BME280;5972;42.134;24.718;2022-10-13T01:17:32;100512.06;;;11.45;100.00
11830;BME280;5972;42.134;24.718;2022-10-13T01:23:39;100505.09;;;11.36;100.00
11830;BME280;5972;42.134;24.718;2022-10-13T01:26:34;100506.38;;;11.30;100.00
11830;BME280;5972;42.134;24.718;2022-10-13T01:29:15;100466.16;;;11.02;100.00
11830;BME280;5972;42.134;24.718;2022-10-13T01:31:51;100501.28;;;11.28;100.00
11830;BME280;5972;42.134;24.718;2022-10-13T01:34:23;100498.72;;;11.32;100.00
11830;BME280;5972;42.134;24.718;2022-10-13T01:36:56;100494.94;;;11.24;100.00
11830;BME280;5972;42.134;24.718;2022-10-13T01:39:31;100499.56;;;11.23;100.00
11830;BME280;5972;42.134;24.718;2022-10-13T01:42:10;100501.47;;;11.23;100.00
11830;BME280;5972;42.134;24.718;2022-10-13T01:44:40;100496.03;;;11.23;100.00
11830;BME280;5972;42.134;24.718;2022-10-13T01:47:11;100494.00;;;11.20;100.00
11830;BME280;5972;42.134;24.718;2022-10-13T01:49:40;100475.84;;;11.12;100.00
11830;BME280;5972;42.134;24.718;2022-10-13T01:52:11;100479.50;;;11.16;100.00
11830;BME280;5972;42.134;24.718;2022-10-13T01:54:39;100486.31;;;11.22;100.00
11830;BME280;5972;42.134;24.718;2022-10-13T01:57:30;100455.50;;;10.97;100.00
11830;BME280;5972;42.134;24.718;2022-10-13T01:59:59;100486.19;;;11.18;100.00
11830;BME280;5972;42.134;24.718;2022-10-13T02:02:33;100474.28;;;11.02;100.00
11830;BME280;5972;42.134;24.718;2022-10-13T02:05:08;100469.66;;;11.03;100.00
11830;BME280;5972;42.134;24.718;2022-10-13T02:07:44;100481.63;;;11.02;100.00
11830;BME280;5972;42.134;24.718;2022-10-13T02:10:17;100488.75;;;11.06;100.00
11830;BME280;5972;42.134;24.718;2022-10-13T02:12:48;100486.38;;;11.05;100.00
11830;BME280;5972;42.134;24.718;2022-10-13T02:15:21;100484.94;;;10.99;100.00
11830;BME280;5972;42.134;24.718;2022-10-13T02:17:51;100482.75;;;10.92;100.00
11830;BME280;5972;42.134;24.718;2022-10-13T02:20:23;100484.38;;;10.84;100.00
11830;BME280;5972;42.134;24.718;2022-10-13T02:22:53;100482.44;;;10.85;100.00
11830;BME280;5972;42.134;24.718;2022-10-13T02:25:21;100482.75;;;10.83;100.00
11830;BME280;5972;42.134;24.718;2022-10-13T02:27:48;100480.19;;;10.87;100.00
11830;BME280;5972;42.134;24.718;2022-10-13T02:30:20;100483.88;;;10.91;100.00
11830;BME280;5972;42.134;24.718;2022-10-13T02:32:47;100481.00;;;10.88;100.00
11830;BME280;5972;42.134;24.718;2022-10-13T02:35:16;100484.19;;;10.90;100.00
11830;BME280;5972;42.134;24.718;2022-10-13T02:37:43;100471.44;;;10.81;100.00
11830;BME280;5972;42.134;24.718;2022-10-13T02:40:10;100485.16;;;10.85;100.00
11830;BME280;5972;42.134;24.718;2022-10-13T02:42:37;100466.56;;;10.75;100.00
11830;BME280;5972;42.134;24.718;2022-10-13T02:45:05;100455.91;;;10.61;100.00
11830;BME280;5972;42.134;24.718;2022-10-13T02:47:31;100478.00;;;10.80;100.00
11830;BME280;5972;42.134;24.718;2022-10-13T02:49:58;100470.06;;;10.75;100.00
11830;BME280;5972;42.134;24.718;2022-10-13T02:52:26;100487.38;;;10.92;100.00
11830;BME280;5972;42.134;24.718;2022-10-13T02:54:54;100479.09;;;10.97;100.00
11830;BME280;5972;42.134;24.718;2022-10-13T02:57:21;100476.56;;;10.92;100.00
11830;BME280;5972;42.134;24.718;2022-10-13T02:59:48;100482.09;;;10.95;100.00
11830;BME280;5972;42.134;24.718;2022-10-13T03:02:15;100475.41;;;10.93;100.00
11830;BME280;5972;42.134;24.718;2022-10-13T03:04:42;100465.91;;;10.87;100.00
11830;BME280;5972;42.134;24.718;2022-10-13T03:07:09;100475.75;;;10.91;100.00
11830;BME280;5972;42.134;24.718;2022-10-13T03:09:38;100457.47;;;10.71;100.00
11830;BME280;5972;42.134;24.718;2022-10-13T03:12:05;100471.13;;;10.92;100.00
11830;BME280;5972;42.134;24.718;2022-10-13T03:14:32;100433.63;;;10.64;100.00
11830;BME280;5972;42.134;24.718;2022-10-13T03:16:59;100439.81;;;10.65;100.00
11830;BME280;5972;42.134;24.718;2022-10-13T03:19:26;100477.34;;;10.92;100.00
11830;BME280;5972;42.134;24.718;2022-10-13T03:21:52;100467.19;;;10.80;100.00
11830;BME280;5972;42.134;24.718;2022-10-13T03:24:19;100481.78;;;10.97;100.00
11830;BME280;5972;42.134;24.718;2022-10-13T03:26:47;100461.91;;;10.84;100.00
11830;BME280;5972;42.134;24.718;2022-10-13T03:29:16;100476.38;;;10.88;100.00
11830;BME280;5972;42.134;24.718;2022-10-13T03:31:43;100463.00;;;10.83;100.00
11830;BME280;5972;42.134;24.718;2022-10-13T03:34:11;100455.56;;;10.71;100.00
11830;BME280;5972;42.134;24.718;2022-10-13T03:36:38;100461.44;;;10.73;100.00
11830;BME280;5972;42.134;24.718;2022-10-13T03:39:05;100474.81;;;10.78;100.00
11830;BME280;5972;42.134;24.718;2022-10-13T03:41:32;100464.97;;;10.74;100.00
11830;BME280;5972;42.134;24.718;2022-10-13T03:44:00;100463.69;;;10.71;100.00
11830;BME280;5972;42.134;24.718;2022-10-13T03:46:28;100435.38;;;10.52;100.00
11830;BME280;5972;42.134;24.718;2022-10-13T03:49:02;100466.38;;;10.71;100.00
11830;BME280;5972;42.134;24.718;2022-10-13T03:51:29;100463.06;;;10.74;100.00
11830;BME280;5972;42.134;24.718;2022-10-13T03:53:55;100438.72;;;10.57;100.00
11830;BME280;5972;42.134;24.718;2022-10-13T03:56:28;100459.88;;;10.64;100.00
11830;BME280;5972;42.134;24.718;2022-10-13T03:58:56;100444.13;;;10.57;100.00
11830;BME280;5972;42.134;24.718;2022-10-13T04:01:27;100465.94;;;10.69;100.00
11830;BME280;5972;42.134;24.718;2022-10-13T04:03:55;100446.50;;;10.67;100.00
11830;BME280;5972;42.134;24.718;2022-10-13T04:06:23;100444.94;;;10.58;100.00
11830;BME280;5972;42.134;24.718;2022-10-13T04:08:50;100458.91;;;10.68;100.00
11830;BME280;5972;42.134;24.718;2022-10-13T04:11:18;100467.22;;;10.63;100.00
11830;BME280;5972;42.134;24.718;2022-10-13T04:13:55;100458.63;;;10.53;100.00
11830;BME280;5972;42.134;24.718;2022-10-13T04:16:24;100461.47;;;10.56;100.00
11830;BME280;5972;42.134;24.718;2022-10-13T04:18:54;100464.84;;;10.53;100.00
11830;BME280;5972;42.134;24.718;2022-10-13T04:21:22;100458.44;;;10.49;100.00
11830;BME280;5972;42.134;24.718;2022-10-13T04:23:49;100471.00;;;10.54;100.00
11830;BME280;5972;42.134;24.718;2022-10-13T04:26:18;100469.91;;;10.55;100.00
11830;BME280;5972;42.134;24.718;2022-10-13T04:28:50;100467.38;;;10.50;100.00
11830;BME280;5972;42.134;24.718;2022-10-13T04:31:23;100475.47;;;10.50;100.00
11830;BME280;5972;42.134;24.718;2022-10-13T04:33:52;100471.34;;;10.43;100.00
11830;BME280;5972;42.134;24.718;2022-10-13T04:36:29;100479.47;;;10.52;100.00
11830;BME280;5972;42.134;24.718;2022-10-13T04:38:56;100456.56;;;10.41;100.00
11830;BME280;5972;42.134;24.718;2022-10-13T04:41:23;100466.25;;;10.51;100.00
11830;BME280;5972;42.134;24.718;2022-10-13T04:43:51;100470.56;;;10.52;100.00
11830;BME280;5972;42.134;24.718;2022-10-13T04:46:20;100439.88;;;10.30;100.00
11830;BME280;5972;42.134;24.718;2022-10-13T04:48:48;100468.16;;;10.59;100.00
11830;BME280;5972;42.134;24.718;2022-10-13T04:51:18;100469.56;;;10.65;100.00
11830;BME280;5972;42.134;24.718;2022-10-13T04:53:45;100477.66;;;10.82;100.00
11830;BME280;5972;42.134;24.718;2022-10-13T04:56:13;100474.31;;;10.76;100.00
11830;BME280;5972;42.134;24.718;2022-10-13T04:58:41;100491.81;;;10.96;100.00
11830;BME280;5972;42.134;24.718;2022-10-13T05:01:12;100490.38;;;10.99;100.00
11830;BME280;5972;42.134;24.718;2022-10-13T05:03:39;100482.84;;;11.13;100.00
11830;BME280;5972;42.134;24.718;2022-10-13T05:06:12;100472.03;;;11.13;100.00
11830;BME280;5972;42.134;24.718;2022-10-13T05:08:40;100488.53;;;11.29;100.00
11830;BME280;5972;42.134;24.718;2022-10-13T05:11:07;100483.56;;;11.39;100.00
11830;BME280;5972;42.134;24.718;2022-10-13T05:13:35;100488.75;;;11.53;100.00
11830;BME280;5972;42.134;24.718;2022-10-13T05:16:05;100482.09;;;11.71;100.00
11830;BME280;5972;42.134;24.718;2022-10-13T05:18:32;100498.97;;;11.85;100.00
11830;BME280;5972;42.134;24.718;2022-10-13T05:21:05;100498.53;;;12.04;100.00
11830;BME280;5972;42.134;24.718;2022-10-13T05:23:32;100500.72;;;12.11;100.00
11830;BME280;5972;42.134;24.718;2022-10-13T05:26:03;100492.13;;;12.08;100.00
11830;BME280;5972;42.134;24.718;2022-10-13T05:28:30;100493.56;;;12.27;100.00
11830;BME280;5972;42.134;24.718;2022-10-13T05:31:07;100494.84;;;12.29;100.00
11830;BME280;5972;42.134;24.718;2022-10-13T05:33:34;100500.88;;;12.35;100.00
11830;BME280;5972;42.134;24.718;2022-10-13T05:36:03;100484.59;;;12.35;100.00
11830;BME280;5972;42.134;24.718;2022-10-13T05:38:30;100496.31;;;12.47;100.00
11830;BME280;5972;42.134;24.718;2022-10-13T05:41:02;100515.06;;;12.73;100.00
11830;BME280;5972;42.134;24.718;2022-10-13T05:43:29;100499.84;;;12.81;100.00
11830;BME280;5972;42.134;24.718;2022-10-13T05:45:57;100516.97;;;13.06;100.00
11830;BME280;5972;42.134;24.718;2022-10-13T05:48:24;100529.56;;;13.10;100.00
11830;BME280;5972;42.134;24.718;2022-10-13T05:50:50;100502.88;;;13.12;100.00
11830;BME280;5972;42.134;24.718;2022-10-13T05:53:18;100514.22;;;13.26;100.00
11830;BME280;5972;42.134;24.718;2022-10-13T05:55:45;100532.97;;;13.52;100.00
11830;BME280;5972;42.134;24.718;2022-10-13T05:58:13;100545.41;;;13.65;100.00
11830;BME280;5972;42.134;24.718;2022-10-13T06:00:41;100536.28;;;13.70;100.00
11830;BME280;5972;42.134;24.718;2022-10-13T06:03:11;100480.97;;;13.54;100.00
11830;BME280;5972;42.134;24.718;2022-10-13T06:05:40;100535.28;;;14.27;100.00
11830;BME280;5972;42.134;24.718;2022-10-13T06:08:09;100544.69;;;15.09;100.00
11830;BME280;5972;42.134;24.718;2022-10-13T06:10:36;100546.44;;;16.27;100.00
11830;BME280;5972;42.134;24.718;2022-10-13T06:13:03;100521.13;;;17.26;96.87
11830;BME280;5972;42.134;24.718;2022-10-13T06:15:34;100501.25;;;18.61;80.60
11830;BME280;5972;42.134;24.718;2022-10-13T06:18:01;100526.41;;;19.44;70.79
11830;BME280;5972;42.134;24.718;2022-10-13T06:20:39;100523.34;;;20.00;63.62
11830;BME280;5972;42.134;24.718;2022-10-13T06:23:09;100503.94;;;19.31;65.82
11830;BME280;5972;42.134;24.718;2022-10-13T06:25:36;100506.88;;;19.49;66.51
11830;BME280;5972;42.134;24.718;2022-10-13T06:28:05;100517.53;;;20.19;63.52
11830;BME280;5972;42.134;24.718;2022-10-13T06:30:31;100462.97;;;20.18;60.17
11830;BME280;5972;42.134;24.718;2022-10-13T06:33:00;100471.66;;;20.27;59.85
11830;BME280;5972;42.134;24.718;2022-10-13T06:35:27;100481.56;;;20.39;59.09
11830;BME280;5972;42.134;24.718;2022-10-13T06:37:53;100496.94;;;20.54;60.03
11830;BME280;5972;42.134;24.718;2022-10-13T06:40:22;100451.81;;;20.76;57.23
11830;BME280;5972;42.134;24.718;2022-10-13T06:42:49;100498.28;;;21.98;53.29
11830;BME280;5972;42.134;24.718;2022-10-13T06:45:16;100502.97;;;22.15;51.68
11830;BME280;5972;42.134;24.718;2022-10-13T06:47:44;100503.41;;;21.85;52.54
11830;BME280;5972;42.134;24.718;2022-10-13T06:50:12;100484.97;;;21.40;54.04
11830;BME280;5972;42.134;24.718;2022-10-13T06:52:41;100501.03;;;21.80;52.75
11830;BME280;5972;42.134;24.718;2022-10-13T06:55:08;100466.81;;;21.78;49.68
11830;BME280;5972;42.134;24.718;2022-10-13T06:57:35;100500.16;;;22.40;48.83
11830;BME280;5972;42.134;24.718;2022-10-13T07:00:04;100509.09;;;22.65;47.28
11830;BME280;5972;42.134;24.718;2022-10-13T07:02:34;100500.91;;;22.44;47.99
11830;BME280;5972;42.134;24.718;2022-10-13T07:05:04;100487.59;;;22.21;48.63
11830;BME280;5972;42.134;24.718;2022-10-13T07:07:33;100471.22;;;22.69;47.22
11830;BME280;5972;42.134;24.718;2022-10-13T07:10:00;100480.28;;;22.70;48.49
11830;BME280;5972;42.134;24.718;2022-10-13T07:12:27;100500.41;;;22.74;49.64
11830;BME280;5972;42.134;24.718;2022-10-13T07:14:54;100501.69;;;22.41;50.84
11830;BME280;5972;42.134;24.718;2022-10-13T07:17:21;100470.69;;;22.09;53.11
11830;BME280;5972;42.134;24.718;2022-10-13T07:19:48;100493.16;;;21.93;54.73
11830;BME280;5972;42.134;24.718;2022-10-13T07:22:15;100469.59;;;21.60;56.53
11830;BME280;5972;42.134;24.718;2022-10-13T07:24:43;100462.94;;;21.40;56.81
11830;BME280;5972;42.134;24.718;2022-10-13T07:27:10;100493.56;;;22.02;56.12
11830;BME280;5972;42.134;24.718;2022-10-13T07:29:37;100479.75;;;22.09;56.29
11830;BME280;5972;42.134;24.718;2022-10-13T07:32:04;100419.81;;;22.31;53.48
11830;BME280;5972;42.134;24.718;2022-10-13T07:34:31;100428.09;;;22.97;50.47
11830;BME280;5972;42.134;24.718;2022-10-13T07:36:57;100469.84;;;23.98;48.21
11830;BME280;5972;42.134;24.718;2022-10-13T07:39:24;100455.81;;;24.16;46.53
11830;BME280;5972;42.134;24.718;2022-10-13T07:41:53;100443.09;;;24.83;44.36
11830;BME280;5972;42.134;24.718;2022-10-13T07:44:21;100449.09;;;25.78;41.69
11830;BME280;5972;42.134;24.718;2022-10-13T07:46:48;100459.97;;;25.42;42.12
11830;BME280;5972;42.134;24.718;2022-10-13T07:49:15;100460.41;;;25.17;43.60
11830;BME280;5972;42.134;24.718;2022-10-13T07:51:45;100402.38;;;25.57;41.59
11830;BME280;5972;42.134;24.718;2022-10-13T07:54:12;100442.44;;;27.07;39.59
11830;BME280;5972;42.134;24.718;2022-10-13T07:56:38;100448.38;;;27.99;37.33
11830;BME280;5972;42.134;24.718;2022-10-13T07:59:07;100433.38;;;28.50;35.51
11830;BME280;5972;42.134;24.718;2022-10-13T08:01:34;100465.03;;;28.57;35.46
11830;BME280;5972;42.134;24.718;2022-10-13T08:04:02;100464.59;;;28.71;35.45
11830;BME280;5972;42.134;24.718;2022-10-13T08:06:29;100407.41;;;28.28;34.64
11830;BME280;5972;42.134;24.718;2022-10-13T08:08:56;100428.28;;;29.00;33.73
11830;BME280;5972;42.134;24.718;2022-10-13T08:11:25;100374.00;;;28.66;33.51
11830;BME280;5972;42.134;24.718;2022-10-13T08:13:52;100437.13;;;29.80;32.54
11830;BME280;5972;42.134;24.718;2022-10-13T08:16:21;100411.44;;;29.63;32.32
11830;BME280;5972;42.134;24.718;2022-10-13T08:18:48;100445.19;;;30.43;31.80
11830;BME280;5972;42.134;24.718;2022-10-13T08:21:16;100439.47;;;30.46;30.98
11830;BME280;5972;42.134;24.718;2022-10-13T08:23:44;100427.13;;;30.56;31.15
11830;BME280;5972;42.134;24.718;2022-10-13T08:26:14;100435.50;;;30.56;31.05
11830;BME280;5972;42.134;24.718;2022-10-13T08:28:42;100419.97;;;31.81;29.45
11830;BME280;5972;42.134;24.718;2022-10-13T08:31:09;100378.94;;;31.60;29.05
11830;BME280;5972;42.134;24.718;2022-10-13T08:33:40;100418.66;;;32.28;28.06
11830;BME280;5972;42.134;24.718;2022-10-13T08:36:07;100429.75;;;32.13;28.25
11830;BME280;5972;42.134;24.718;2022-10-13T08:38:34;100408.94;;;31.87;28.71
11830;BME280;5972;42.134;24.718;2022-10-13T08:41:01;100397.69;;;32.05;27.91
11830;BME280;5972;42.134;24.718;2022-10-13T08:43:28;100417.31;;;31.96;28.49
11830;BME280;5972;42.134;24.718;2022-10-13T08:45:57;100396.28;;;31.18;29.16
11830;BME280;5972;42.134;24.718;2022-10-13T08:48:28;100412.94;;;30.82;29.46
11830;BME280;5972;42.134;24.718;2022-10-13T08:51:02;100416.16;;;31.11;29.40
11830;BME280;5972;42.134;24.718;2022-10-13T08:53:32;100404.13;;;31.60;28.53
11830;BME280;5972;42.134;24.718;2022-10-13T08:56:04;100414.38;;;31.72;28.27
11830;BME280;5972;42.134;24.718;2022-10-13T08:58:35;100414.97;;;31.49;28.68
11830;BME280;5972;42.134;24.718;2022-10-13T09:01:11;100407.50;;;31.36;28.86
11830;BME280;5972;42.134;24.718;2022-10-13T09:03:47;100421.97;;;32.17;27.69
11830;BME280;5972;42.134;24.718;2022-10-13T09:06:19;100409.81;;;32.62;27.20
11830;BME280;5972;42.134;24.718;2022-10-13T09:08:54;100416.25;;;31.93;27.87
11830;BME280;5972;42.134;24.718;2022-10-13T09:11:24;100407.47;;;32.28;27.89
11830;BME280;5972;42.134;24.718;2022-10-13T09:13:57;100393.78;;;32.63;26.96
11830;BME280;5972;42.134;24.718;2022-10-13T09:16:30;100385.81;;;32.37;27.22
11830;BME280;5972;42.134;24.718;2022-10-13T09:19:14;100375.66;;;32.49;26.75
11830;BME280;5972;42.134;24.718;2022-10-13T09:21:44;100402.38;;;32.59;26.62
11830;BME280;5972;42.134;24.718;2022-10-13T09:24:13;100388.75;;;32.43;27.04
11830;BME280;5972;42.134;24.718;2022-10-13T09:26:42;100382.00;;;32.49;26.90
11830;BME280;5972;42.134;24.718;2022-10-13T09:29:11;100373.78;;;32.46;26.83
11830;BME280;5972;42.134;24.718;2022-10-13T09:31:41;100391.13;;;33.49;25.54
11830;BME280;5972;42.134;24.718;2022-10-13T09:34:13;100363.91;;;33.93;25.29
11830;BME280;5972;42.134;24.718;2022-10-13T09:37:00;100363.56;;;33.23;25.96
11830;BME280;5972;42.134;24.718;2022-10-13T09:39:28;100378.81;;;33.46;25.37
11830;BME280;5972;42.134;24.718;2022-10-13T09:42:17;100358.75;;;32.67;26.06
11830;BME280;5972;42.134;24.718;2022-10-13T09:44:45;100365.81;;;33.34;25.33
11830;BME280;5972;42.134;24.718;2022-10-13T09:47:18;100359.56;;;33.15;25.77
11830;BME280;5972;42.134;24.718;2022-10-13T09:49:57;100372.50;;;32.56;26.43
11830;BME280;5972;42.134;24.718;2022-10-13T09:52:26;100356.69;;;33.00;25.86
11830;BME280;5972;42.134;24.718;2022-10-13T09:54:55;100362.06;;;32.56;26.34
11830;BME280;5972;42.134;24.718;2022-10-13T09:57:28;100351.63;;;33.14;25.43
11830;BME280;5972;42.134;24.718;2022-10-13T10:00:02;100351.97;;;33.07;25.70
11830;BME280;5972;42.134;24.718;2022-10-13T10:02:33;100352.69;;;33.16;25.66
11830;BME280;5972;42.134;24.718;2022-10-13T10:05:06;100328.69;;;32.77;25.73
11830;BME280;5972;42.134;24.718;2022-10-13T10:07:41;100261.81;;;31.86;26.21
11830;BME280;5972;42.134;24.718;2022-10-13T10:10:23;100328.25;;;32.27;26.31
11830;BME280;5972;42.134;24.718;2022-10-13T10:12:52;100324.34;;;31.55;27.24
11830;BME280;5972;42.134;24.718;2022-10-13T10:15:25;100297.06;;;32.01;26.93
11830;BME280;5972;42.134;24.718;2022-10-13T10:17:58;100321.00;;;32.21;26.53
11830;BME280;5972;42.134;24.718;2022-10-13T10:20:41;100307.06;;;32.35;26.48
11830;BME280;5972;42.134;24.718;2022-10-13T10:23:17;100317.09;;;32.18;26.45
11830;BME280;5972;42.134;24.718;2022-10-13T10:25:50;100300.41;;;31.72;27.31
11830;BME280;5972;42.134;24.718;2022-10-13T10:28:38;100264.72;;;32.42;26.59
11830;BME280;5972;42.134;24.718;2022-10-13T10:31:18;100282.81;;;32.32;26.48
11830;BME280;5972;42.134;24.718;2022-10-13T10:33:55;100271.72;;;31.08;27.91
11830;BME280;5972;42.134;24.718;2022-10-13T10:36:28;100246.78;;;29.75;29.42
11830;BME280;5972;42.134;24.718;2022-10-13T10:39:02;100238.16;;;29.61;29.85
11830;BME280;5972;42.134;24.718;2022-10-13T10:41:39;100260.78;;;29.85;29.93
11830;BME280;5972;42.134;24.718;2022-10-13T10:44:12;100232.28;;;28.08;31.46
11830;BME280;5972;42.134;24.718;2022-10-13T10:46:44;100261.19;;;27.44;32.86
11830;BME280;5972;42.134;24.718;2022-10-13T10:49:16;100220.06;;;26.65;33.87
11830;BME280;5972;42.134;24.718;2022-10-13T10:51:44;100227.59;;;26.16;35.13
11830;BME280;5972;42.134;24.718;2022-10-13T10:54:25;100194.88;;;25.75;35.58
11830;BME280;5972;42.134;24.718;2022-10-13T10:57:00;100243.97;;;25.94;35.80
11830;BME280;5972;42.134;24.718;2022-10-13T10:59:41;100205.72;;;25.50;37.01
11830;BME280;5972;42.134;24.718;2022-10-13T11:02:28;100244.91;;;24.89;37.63
11830;BME280;5972;42.134;24.718;2022-10-13T11:05:00;100133.91;;;24.37;37.92
11830;BME280;5972;42.134;24.718;2022-10-13T11:07:57;100231.03;;;24.42;39.35
11830;BME280;5972;42.134;24.718;2022-10-13T11:10:27;100220.53;;;24.07;40.31
11830;BME280;5972;42.134;24.718;2022-10-13T11:13:15;100216.38;;;24.46;39.74
11830;BME280;5972;42.134;24.718;2022-10-13T11:15:43;100205.34;;;24.42;39.76
11830;BME280;5972;42.134;24.718;2022-10-13T11:21:17;100183.88;;;23.46;42.51
11830;BME280;5972;42.134;24.718;2022-10-13T11:23:45;100196.41;;;23.20;42.90
11830;BME280;5972;42.134;24.718;2022-10-13T11:26:40;100202.63;;;23.28;43.80
11830;BME280;5972;42.134;24.718;2022-10-13T11:29:18;100186.72;;;23.05;43.66
11830;BME280;5972;42.134;24.718;2022-10-13T11:32:42;100129.09;;;22.76;44.07
11830;BME280;5972;42.134;24.718;2022-10-13T11:35:24;100147.00;;;22.95;43.92
11830;BME280;5972;42.134;24.718;2022-10-13T11:38:12;100159.56;;;23.30;43.50
11830;BME280;5972;42.134;24.718;2022-10-13T11:40:53;100119.72;;;22.67;42.33
11830;BME280;5972;42.134;24.718;2022-10-13T11:43:42;100128.09;;;22.94;42.83
11830;BME280;5972;42.134;24.718;2022-10-13T11:46:25;100074.41;;;22.64;43.51
11830;BME280;5972;42.134;24.718;2022-10-13T11:49:15;100071.19;;;22.73;43.04
11830;BME280;5972;42.134;24.718;2022-10-13T11:55:01;100135.81;;;23.40;40.89
11830;BME280;5972;42.134;24.718;2022-10-13T11:57:30;100119.06;;;23.24;40.73
11830;BME280;5972;42.134;24.718;2022-10-13T11:59:58;100142.75;;;22.87;41.07
11830;BME280;5972;42.134;24.718;2022-10-13T12:02:26;100146.31;;;22.88;42.25
11830;BME280;5972;42.134;24.718;2022-10-13T12:05:03;100156.28;;;22.74;43.05
11830;BME280;5972;42.134;24.718;2022-10-13T12:07:33;100138.41;;;22.90;42.99
11830;BME280;5972;42.134;24.718;2022-10-13T12:10:04;100124.16;;;22.95;41.88
11830;BME280;5972;42.134;24.718;2022-10-13T12:12:32;100125.34;;;22.94;42.36
11830;BME280;5972;42.134;24.718;2022-10-13T12:15:01;100116.00;;;22.43;42.87
11830;BME280;5972;42.134;24.718;2022-10-13T12:17:30;100135.31;;;22.43;43.16
11830;BME280;5972;42.134;24.718;2022-10-13T12:20:00;100117.34;;;22.28;43.80
11830;BME280;5972;42.134;24.718;2022-10-13T12:22:28;100137.19;;;22.09;43.34
11830;BME280;5972;42.134;24.718;2022-10-13T12:24:56;100140.81;;;21.98;43.37
11830;BME280;5972;42.134;24.718;2022-10-13T12:27:24;100128.38;;;22.24;42.70
11830;BME280;5972;42.134;24.718;2022-10-13T12:29:52;100121.13;;;22.45;42.67
11830;BME280;5972;42.134;24.718;2022-10-13T12:32:22;100116.28;;;22.56;42.19
11830;BME280;5972;42.134;24.718;2022-10-13T12:34:50;100125.41;;;22.49;42.27
11830;BME280;5972;42.134;24.718;2022-10-13T12:37:25;100128.56;;;22.51;41.95
11830;BME280;5972;42.134;24.718;2022-10-13T12:39:53;100106.00;;;22.60;41.79
11830;BME280;5972;42.134;24.718;2022-10-13T12:42:25;100097.66;;;22.67;41.34
11830;BME280;5972;42.134;24.718;2022-10-13T12:44:53;100104.66;;;22.75;40.48
11830;BME280;5972;42.134;24.718;2022-10-13T12:47:38;100089.56;;;22.49;40.36
11830;BME280;5972;42.134;24.718;2022-10-13T12:50:31;100105.78;;;22.44;41.03
11830;BME280;5972;42.134;24.718;2022-10-13T12:53:14;100090.13;;;22.33;40.83
11830;BME280;5972;42.134;24.718;2022-10-13T12:55:48;100100.31;;;22.40;41.62
11830;BME280;5972;42.134;24.718;2022-10-13T12:58:19;100085.28;;;22.45;41.42
11830;BME280;5972;42.134;24.718;2022-10-13T13:01:06;100077.28;;;22.54;41.09
11830;BME280;5972;42.134;24.718;2022-10-13T13:03:38;100083.84;;;22.67;40.90
11830;BME280;5972;42.134;24.718;2022-10-13T13:06:25;100053.88;;;22.72;39.86
11830;BME280;5972;42.134;24.718;2022-10-13T13:09:20;100076.03;;;22.96;39.93
11830;BME280;5972;42.134;24.718;2022-10-13T13:12:02;100065.16;;;22.82;38.95
11830;BME280;5972;42.134;24.718;2022-10-13T13:14:36;100051.03;;;22.42;38.56
11830;BME280;5972;42.134;24.718;2022-10-13T13:17:07;100060.34;;;22.18;39.06
11830;BME280;5972;42.134;24.718;2022-10-13T13:19:41;100009.44;;;21.85;39.62